Taoxian Airport
ZYTX : now visible

Airfield :











YOU CAN JOIN US ON...

 
LOGIN :

Register | Disclaimer

   EN    FR    IT 

 









Legend :    VFR   Marginal VFR   IFR   Intensive IFR   Very Intensive IFR
Visi :
Ceiling :
>= 8 km
>= 3000ft
5 to 8 km
1000 to 3000 ft
1500m to 5 km
500 to 1000 ft
800 to 1500m
200 to 500 ft
< 800m
< 200 ft
Symbols :   Thunderstorms  Fog  Heavy snow  Heavy precipitations  Wind > 20 kt







- Airport Elevation : 198 ft
- IATA code : SHE


ZYTX - Taoxian

CURRENT METAR :
  • 221100Z 20001MPS CAVOK 22/03 Q1001 NOSIG

EXPIRED METARs :
  • 221030Z 22001MPS CAVOK 24/02 Q1000 NOSIG
  • 221000Z VRB01MPS CAVOK 25/03 Q1000 NOSIG
  • 220930Z 24002MPS 210V280 CAVOK 26/02 Q1000 NOSIG
  • 220900Z 00000MPS CAVOK 28/M00 Q1000 NOSIG
  • 220830Z VRB01MPS CAVOK 27/01 Q1000 NOSIG

TAF TAF ZYTX
Valid from the 22 at 06:00 until the 23 at 06:00 UTC


220115Z 2206/2306 26005MPS CAVOK TX27/2206Z TN14/2221Z
BECMG 2211/2212 20004MPS
ZYSH FIR / Asia



MET'MAP, your aeronautical weather chart ! - Copyright ORBIFLY December 2007 - Disclaimer

ORBIFLY MET'MAP TEAM :

Programming & Development : Alexandra Zaïnal
Concept & Development : Baudouin d'Aumeries
Co-Development & Prog : Marc-Olivier Méhu
Technical & hardware support : Manuel Goepfert

Contact : metmap@orbifly.com




SOURCES & CREDITS :

   NOAA       Earth
Advisory